createdAt,value
2022-10-16T10:47:37.155Z,20.7
2022-10-16T10:48:16.957Z,20.7
2022-10-16T10:49:16.986Z,20.7
2022-10-16T10:50:17.094Z,21.1
2022-10-16T10:51:17.111Z,21.3
2022-10-16T10:52:17.143Z,21.3
2022-10-16T10:53:17.199Z,21.4
2022-10-16T10:54:17.339Z,21.5
2022-10-16T10:55:17.349Z,21.6
2022-10-16T10:56:17.485Z,21.3
2022-10-16T10:57:17.427Z,21.4
2022-10-16T10:58:17.612Z,21.4
2022-10-16T10:59:17.566Z,21.3
2022-10-16T11:00:17.611Z,21
2022-10-16T11:01:17.659Z,20.8
2022-10-16T11:02:17.764Z,20.8
2022-10-16T11:03:17.784Z,21.2
2022-10-16T11:04:17.835Z,21.8
2022-10-16T11:05:17.965Z,22
2022-10-16T11:06:17.959Z,22.2
2022-10-16T11:07:18.056Z,22.3
2022-10-16T11:08:18.091Z,22.3
2022-10-16T11:09:18.144Z,22
2022-10-16T11:10:18.185Z,22.2
2022-10-16T11:11:18.267Z,22.1
2022-10-16T11:12:18.305Z,22.4
2022-10-16T11:13:18.380Z,22.6
2022-10-16T11:14:18.429Z,22.6
2022-10-16T11:15:18.474Z,22.4
2022-10-16T11:16:20.476Z,22.4
2022-10-16T11:17:18.589Z,22.5
2022-10-16T11:18:18.685Z,22.1
2022-10-16T11:19:18.781Z,22
2022-10-16T11:20:18.774Z,22.2
2022-10-16T11:21:18.811Z,22.1
2022-10-16T11:22:18.921Z,22.2
2022-10-16T11:23:18.991Z,22.2
2022-10-16T11:24:19.072Z,22.5
2022-10-16T11:25:19.083Z,22.6
2022-10-16T11:26:20.451Z,22.4
2022-10-16T11:27:19.148Z,22
2022-10-16T11:28:25.413Z,21.8
2022-10-16T11:29:19.349Z,21.9
2022-10-16T11:30:19.358Z,22
2022-10-16T11:31:19.438Z,22.2
2022-10-16T11:32:19.460Z,22.5
2022-10-16T11:33:19.545Z,22.5
2022-10-16T11:34:19.596Z,22.5
2022-10-16T11:35:24.670Z,22.3
2022-10-16T11:36:19.707Z,21.8
2022-10-16T11:37:19.752Z,21.2
2022-10-16T11:38:19.787Z,20.9
2022-10-16T11:39:24.974Z,21.2
2022-10-16T11:40:19.916Z,21.2
2022-10-16T11:41:19.936Z,21.1
2022-10-16T11:42:19.986Z,20.8
2022-10-16T11:43:20.049Z,20.8
2022-10-16T11:44:20.227Z,20.7
2022-10-16T11:45:20.200Z,21.1
2022-10-16T11:46:20.234Z,21.1
2022-10-16T11:48:20.360Z,22
2022-10-16T11:49:20.462Z,21.9
2022-10-16T11:50:20.483Z,21.7
2022-10-16T11:51:20.574Z,21.2
2022-10-16T11:52:20.671Z,20.9
2022-10-16T11:53:20.630Z,20.6
2022-10-16T11:54:20.711Z,20.5
2022-10-16T11:55:20.772Z,20.3
2022-10-16T11:56:20.770Z,20.3
2022-10-16T11:57:20.833Z,20.1
2022-10-16T11:58:20.870Z,20.2
2022-10-16T11:59:20.928Z,20.2
2022-10-16T12:00:21.014Z,20.2
2022-10-16T12:01:21.087Z,20.1
2022-10-16T12:02:21.091Z,20
2022-10-16T12:03:31.185Z,20
2022-10-16T12:04:21.238Z,19.8
2022-10-16T12:05:21.281Z,19.7
2022-10-16T12:06:27.391Z,19.6
2022-10-16T12:07:21.350Z,19.6
2022-10-16T12:08:21.438Z,19.5
2022-10-16T12:09:21.473Z,19.5
2022-10-16T12:10:26.457Z,19.6
2022-10-16T12:11:21.683Z,19.5
2022-10-16T12:12:21.703Z,19.5
2022-10-16T12:13:21.785Z,19.7
2022-10-16T12:14:21.847Z,19.5
2022-10-16T12:15:30.053Z,19.1
2022-10-16T12:16:21.998Z,19
2022-10-16T12:17:22.054Z,19
2022-10-16T12:18:22.266Z,19
2022-10-16T12:19:22.250Z,19.1
2022-10-16T12:20:22.356Z,19.2
2022-10-16T12:21:22.298Z,19.3
2022-10-16T12:22:22.354Z,19.3
2022-10-16T12:23:22.337Z,19.3
2022-10-16T12:24:22.423Z,19.4
2022-10-16T12:25:22.506Z,19.4
2022-10-16T12:26:22.514Z,19.2
2022-10-16T12:27:22.571Z,19.1
2022-10-16T12:28:22.663Z,19
2022-10-16T12:29:22.668Z,19
2022-10-16T12:30:22.751Z,19.1
2022-10-16T12:31:22.777Z,19.1
2022-10-16T12:32:41.792Z,19
2022-10-16T12:33:22.891Z,19
2022-10-16T12:34:22.988Z,19.1
2022-10-16T12:35:23.056Z,19
2022-10-16T12:36:24.993Z,19.1
2022-10-16T12:37:23.149Z,19.2
2022-10-16T12:38:23.247Z,19.2
2022-10-16T12:39:23.293Z,19.2
2022-10-16T12:40:23.365Z,19.2
2022-10-16T12:41:23.376Z,19.2
2022-10-16T12:42:23.478Z,19.2
2022-10-16T12:43:25.989Z,19.3
2022-10-16T12:44:23.563Z,19.2
2022-10-16T12:45:23.622Z,19.3
2022-10-16T12:46:23.644Z,19.3
2022-10-16T12:47:23.696Z,19.3
2022-10-16T12:48:26.386Z,19.3
2022-10-16T12:49:23.847Z,19.3
2022-10-16T12:50:23.891Z,19.1
2022-10-16T12:51:23.962Z,19
2022-10-16T12:52:24.250Z,19.1
2022-10-16T12:53:24.037Z,19.1
2022-10-16T12:54:24.123Z,19.1
2022-10-16T12:55:24.297Z,19.1
2022-10-16T12:56:24.230Z,19.1
2022-10-16T12:57:24.489Z,19.1
2022-10-16T12:58:24.337Z,19.1
2022-10-16T12:59:24.391Z,19.2
2022-10-16T13:00:24.522Z,19.2
2022-10-16T13:01:24.475Z,19.3
2022-10-16T13:02:24.535Z,19.3
2022-10-16T13:03:24.626Z,19.3
2022-10-16T13:04:24.680Z,19.3
2022-10-16T13:05:24.927Z,19.3
2022-10-16T13:06:24.791Z,19.2
2022-10-16T13:07:25.725Z,19.2
2022-10-16T13:08:24.918Z,19.2
2022-10-16T13:09:24.973Z,19.1
2022-10-16T13:10:25.123Z,19
2022-10-16T13:11:25.103Z,19.1
2022-10-16T13:12:25.157Z,19.1
2022-10-16T13:13:25.212Z,19.1
2022-10-16T13:14:25.320Z,19.2
2022-10-16T13:15:25.343Z,19.2
2022-10-16T13:16:25.395Z,19.2
2022-10-16T13:17:26.698Z,19.2
2022-10-16T13:18:25.511Z,19.2
2022-10-16T13:19:25.609Z,19.2
2022-10-16T13:20:25.654Z,19.2
2022-10-16T13:21:25.721Z,19.2
2022-10-16T13:22:25.769Z,19.2
2022-10-16T13:23:25.852Z,19.1
2022-10-16T13:24:30.930Z,19.1
2022-10-16T13:25:25.972Z,19
2022-10-16T13:26:26.020Z,19
2022-10-16T13:27:27.307Z,19
2022-10-16T13:28:26.142Z,19
2022-10-16T13:29:26.161Z,18.9
2022-10-16T13:30:26.935Z,18.9
2022-10-16T13:31:26.251Z,19
2022-10-16T13:32:26.323Z,18.9
2022-10-16T13:33:26.361Z,18.8
2022-10-16T13:34:26.440Z,18.8
2022-10-16T13:35:26.487Z,18.8
2022-10-16T13:36:26.526Z,18.9
2022-10-16T13:37:26.936Z,18.9
2022-10-16T13:38:26.646Z,18.8
2022-10-16T13:39:26.737Z,18.8
2022-10-16T13:40:26.805Z,18.8
2022-10-16T13:41:26.833Z,18.8
2022-10-16T13:42:27.828Z,18.8
2022-10-16T13:43:26.951Z,18.8
2022-10-16T13:44:26.947Z,18.7
2022-10-16T13:45:27.029Z,18.7
2022-10-16T13:46:27.086Z,18.6
2022-10-16T13:47:45.136Z,18.6
2022-10-16T13:48:27.447Z,18.7
2022-10-16T13:49:27.303Z,18.6
2022-10-16T13:50:27.357Z,18.6
2022-10-16T13:51:29.335Z,18.6
2022-10-16T13:52:33.006Z,18.5
2022-10-16T13:53:30.159Z,18.4
2022-10-16T13:54:39.896Z,18.5
2022-10-16T13:55:35.112Z,18.5
2022-10-16T13:56:32.766Z,18.5
2022-10-16T13:57:27.962Z,18.4
2022-10-16T13:58:32.947Z,18.4
2022-10-16T13:59:27.996Z,18.5
2022-10-16T14:00:28.060Z,18.5
2022-10-16T14:01:30.030Z,18.5
2022-10-16T14:02:28.913Z,18.5
2022-10-16T14:03:30.125Z,18.4
2022-10-16T14:04:31.386Z,18.5
2022-10-16T14:05:35.069Z,18.5
2022-10-16T14:06:28.359Z,18.6
2022-10-16T14:07:29.405Z,18.7
2022-10-16T14:08:28.680Z,18.7
2022-10-16T14:09:28.895Z,18.6
2022-10-16T14:10:28.565Z,18.6
2022-10-16T14:12:20.323Z,18.6
2022-10-16T14:12:28.712Z,18.6
2022-10-16T14:13:28.713Z,18.6
2022-10-16T14:14:28.826Z,18.6
2022-10-16T14:15:28.900Z,18.6
2022-10-16T14:16:40.291Z,18.6
2022-10-16T14:17:29.181Z,18.6
2022-10-16T14:18:32.043Z,18.6
2022-10-16T14:19:29.171Z,18.5
2022-10-16T14:20:29.294Z,18.5
2022-10-16T14:21:29.169Z,18.5
2022-10-16T14:22:29.695Z,18.4
2022-10-16T14:23:29.454Z,18.4
2022-10-16T14:24:30.172Z,18.4
2022-10-16T14:25:29.419Z,18.3
2022-10-16T14:26:29.556Z,18.3
2022-10-16T14:27:29.904Z,18.2
2022-10-16T14:28:29.603Z,18.2
2022-10-16T14:29:29.815Z,18.2
2022-10-16T14:30:29.726Z,18.2
2022-10-16T14:31:35.558Z,18.2
2022-10-16T14:32:39.817Z,18.2
2022-10-16T14:33:33.634Z,18.1
2022-10-16T14:34:39.892Z,18.2
2022-10-16T14:35:29.985Z,18.2
2022-10-16T14:36:30.059Z,18.1
2022-10-16T14:37:30.399Z,18.1
2022-10-16T14:38:32.843Z,18.2
2022-10-16T14:39:39.619Z,18.2
2022-10-16T14:40:30.257Z,18.2
2022-10-16T14:41:30.283Z,18.2
2022-10-16T14:42:36.460Z,18.2
2022-10-16T14:43:48.633Z,18.2
2022-10-16T14:45:35.683Z,18.2
2022-10-16T14:45:37.697Z,18.1
2022-10-16T14:46:30.557Z,18.2
2022-10-16T14:47:39.078Z,18.1
2022-10-16T14:48:41.120Z,18.1
2022-10-16T14:49:33.949Z,18.1
2022-10-16T14:50:31.164Z,18.2
2022-10-16T14:51:35.131Z,18.2
2022-10-16T14:52:31.301Z,18.2
2022-10-16T14:53:32.156Z,18.3
2022-10-16T14:54:38.299Z,18.3
2022-10-16T14:56:12.679Z,18.3
2022-10-16T14:56:33.020Z,18.2
2022-10-16T14:58:07.417Z,18.1
2022-10-16T14:59:57.347Z,18.1
2022-10-16T15:00:59.917Z,18
2022-10-16T15:01:31.423Z,18
2022-10-16T15:03:55.130Z,18
2022-10-16T15:04:31.563Z,17.9
2022-10-16T15:05:31.652Z,18
2022-10-16T15:06:53.599Z,17.9
2022-10-16T15:07:31.745Z,17.9
2022-10-16T15:08:31.805Z,17.9
2022-10-16T15:10:12.452Z,17.9
2022-10-16T15:10:31.955Z,17.9
2022-10-16T15:13:11.348Z,17.9
2022-10-16T15:14:32.152Z,17.9
2022-10-16T15:16:32.171Z,17.9
2022-10-16T15:18:32.736Z,17.8
2022-10-16T15:20:33.525Z,17.8
2022-10-16T15:20:38.074Z,17.8
2022-10-16T15:21:52.769Z,17.8
2022-10-16T15:22:33.205Z,17.8
2022-10-16T15:23:32.696Z,17.8
2022-10-16T15:25:01.919Z,17.8
2022-10-16T15:26:04.445Z,17.8
2022-10-16T15:26:32.871Z,17.8
2022-10-16T15:31:50.057Z,17.8
2022-10-16T15:32:33.256Z,17.8
2022-10-16T15:33:34.495Z,17.8
2022-10-16T15:36:35.572Z,17.8
2022-10-16T15:37:04.013Z,17.7
2022-10-16T15:38:33.712Z,17.7
2022-10-16T15:38:38.170Z,17.7
2022-10-16T15:39:39.043Z,17.7
2022-10-16T15:40:34.973Z,17.6
2022-10-16T15:41:33.803Z,17.6
2022-10-16T15:42:33.820Z,17.6
2022-10-16T15:43:33.877Z,17.6
2022-10-16T15:44:33.886Z,17.6
2022-10-16T15:45:33.914Z,17.6
2022-10-16T15:46:33.988Z,17.6
2022-10-16T15:47:34.038Z,17.5
2022-10-16T15:48:34.137Z,17.5
2022-10-16T15:49:34.118Z,17.5
2022-10-16T15:50:34.280Z,17.5
2022-10-16T15:51:34.485Z,17.4
2022-10-16T15:52:34.308Z,17.4
2022-10-16T15:53:34.342Z,17.4
2022-10-16T15:54:34.409Z,17.4
2022-10-16T15:55:34.410Z,17.4
2022-10-16T15:56:34.988Z,17.4
2022-10-16T15:57:34.509Z,17.4
2022-10-16T15:58:34.578Z,17.3
2022-10-16T15:59:34.666Z,17.4
2022-10-16T16:00:34.734Z,17.4
2022-10-16T16:01:34.804Z,17.4
2022-10-16T16:02:34.842Z,17.4
2022-10-16T16:03:34.945Z,17.3
2022-10-16T16:04:50.328Z,17.3
2022-10-16T16:05:35.011Z,17.3
2022-10-16T16:06:35.059Z,17.3
2022-10-16T16:07:35.426Z,17.3
2022-10-16T16:08:35.285Z,17.3
2022-10-16T16:09:35.249Z,17.3
2022-10-16T16:10:35.279Z,17.3
2022-10-16T16:11:35.432Z,17.3
2022-10-16T16:12:35.395Z,17.3
2022-10-16T16:13:35.466Z,17.2
2022-10-16T16:14:35.496Z,17.2
2022-10-16T16:15:35.592Z,17.2
2022-10-16T16:16:35.614Z,17.2
2022-10-16T16:17:35.676Z,17.1
2022-10-16T16:18:35.753Z,17.2
2022-10-16T16:19:35.792Z,17.1
2022-10-16T16:20:35.859Z,17.1
2022-10-16T16:21:35.990Z,17.1
2022-10-16T16:22:35.960Z,17.2
2022-10-16T16:23:36.041Z,17.1
2022-10-16T16:24:36.117Z,17.1
2022-10-16T16:25:36.157Z,17.2
2022-10-16T16:26:36.234Z,17.1
2022-10-16T16:27:36.325Z,17.1
2022-10-16T16:28:36.440Z,17.1
2022-10-16T16:29:36.439Z,17
2022-10-16T16:30:36.429Z,17
2022-10-16T16:31:36.539Z,17
2022-10-16T16:32:36.548Z,17
2022-10-16T16:33:36.695Z,17
2022-10-16T16:34:36.713Z,17
2022-10-16T16:35:36.961Z,17
2022-10-16T16:36:37.064Z,16.9
2022-10-16T16:37:36.884Z,17
2022-10-16T16:38:36.956Z,17
2022-10-16T16:39:36.998Z,16.9
2022-10-16T16:40:37.043Z,16.9
2022-10-16T16:41:37.096Z,16.9
2022-10-16T16:42:37.190Z,16.9
2022-10-16T16:43:37.256Z,16.9
2022-10-16T16:44:37.276Z,16.9
2022-10-16T16:45:37.326Z,16.9
2022-10-16T16:46:37.385Z,16.9
2022-10-16T16:47:37.460Z,17
2022-10-16T16:48:37.537Z,17
2022-10-16T16:49:37.634Z,16.9
2022-10-16T16:50:37.684Z,16.9
2022-10-16T16:51:39.704Z,16.9
2022-10-16T16:52:37.754Z,16.9
2022-10-16T16:53:37.837Z,16.9
2022-10-16T16:54:37.876Z,16.9
2022-10-16T16:55:37.919Z,16.9
2022-10-16T16:56:37.976Z,16.9
2022-10-16T16:57:38.023Z,16.9
2022-10-16T16:58:38.080Z,16.9
2022-10-16T16:59:38.139Z,16.9
2022-10-16T17:00:38.181Z,16.9
2022-10-16T17:01:38.238Z,16.8
2022-10-16T17:02:38.292Z,16.8
2022-10-16T17:03:38.396Z,16.8
2022-10-16T17:04:38.387Z,16.8
2022-10-16T17:05:38.422Z,16.7
2022-10-16T17:06:38.505Z,16.8
2022-10-16T17:07:38.600Z,16.8
2022-10-16T17:08:38.658Z,16.8
2022-10-16T17:09:38.675Z,16.7
2022-10-16T17:10:38.760Z,16.8
2022-10-16T17:11:38.795Z,16.8
2022-10-16T17:12:38.873Z,16.8
2022-10-16T17:13:38.945Z,16.8
2022-10-16T17:14:38.969Z,16.8
2022-10-16T17:15:39.075Z,16.8
2022-10-16T17:16:39.070Z,16.7
2022-10-16T17:17:39.122Z,16.7
2022-10-16T17:18:39.157Z,16.7
2022-10-16T17:19:39.206Z,16.7
2022-10-16T17:20:39.247Z,16.7
2022-10-16T17:21:39.337Z,16.6
2022-10-16T17:22:39.402Z,16.6
2022-10-16T17:23:39.565Z,16.6
2022-10-16T17:24:39.476Z,16.6
2022-10-16T17:25:39.525Z,16.7
2022-10-16T17:26:39.567Z,16.7
2022-10-16T17:27:39.660Z,16.7
2022-10-16T17:28:39.785Z,16.6
2022-10-16T17:29:39.710Z,16.5
2022-10-16T17:30:39.796Z,16.6
2022-10-16T17:31:39.837Z,16.6
2022-10-16T17:32:39.904Z,16.6
2022-10-16T17:33:39.960Z,16.6
2022-10-16T17:34:40.013Z,16.6
2022-10-16T17:35:40.078Z,16.6
2022-10-16T17:36:40.140Z,16.6
2022-10-16T17:37:40.190Z,16.6
2022-10-16T17:38:40.253Z,16.6
2022-10-16T17:39:40.374Z,16.6
2022-10-16T17:40:40.341Z,16.6
2022-10-16T17:41:41.469Z,16.6
2022-10-16T17:42:40.445Z,16.6
2022-10-16T17:43:40.634Z,16.6
2022-10-16T17:44:40.739Z,16.6
2022-10-16T17:45:40.640Z,16.6
2022-10-16T17:46:41.276Z,16.6
2022-10-16T17:47:40.744Z,16.6
2022-10-16T17:48:41.542Z,16.6
2022-10-16T17:49:40.852Z,16.5
2022-10-16T17:50:40.888Z,16.5
2022-10-16T17:51:41.003Z,16.5
2022-10-16T17:52:41.007Z,16.5
2022-10-16T17:53:41.099Z,16.5
2022-10-16T17:54:41.207Z,16.6
2022-10-16T17:55:41.484Z,16.5
2022-10-16T17:56:41.254Z,16.5
2022-10-16T17:57:41.317Z,16.4
2022-10-16T17:58:41.483Z,16.5
2022-10-16T17:59:41.444Z,16.5
2022-10-16T18:00:42.058Z,16.5
2022-10-16T18:01:41.734Z,16.5
2022-10-16T18:02:46.549Z,16.4
2022-10-16T18:03:41.651Z,16.4
2022-10-16T18:04:41.946Z,16.4
2022-10-16T18:05:41.831Z,16.4
2022-10-16T18:06:41.786Z,16.5
2022-10-16T18:08:41.902Z,16.5
2022-10-16T18:09:56.249Z,16.5
2022-10-16T18:10:41.971Z,16.5
2022-10-16T18:11:42.039Z,16.4
2022-10-16T18:12:42.089Z,16.5
2022-10-16T18:13:42.171Z,16.6
2022-10-16T18:14:47.186Z,16.5
2022-10-16T18:15:53.731Z,16.5
2022-10-16T18:16:42.568Z,16.5
2022-10-16T18:17:42.319Z,16.5
2022-10-16T18:18:42.371Z,16.5
2022-10-16T18:19:42.449Z,16.5
2022-10-16T18:20:42.504Z,16.4
2022-10-16T18:21:42.825Z,16.4
2022-10-16T18:22:42.605Z,16.4
2022-10-16T18:23:46.366Z,16.5
2022-10-16T18:24:42.688Z,16.5
2022-10-16T18:25:42.779Z,16.4
2022-10-16T18:26:42.814Z,16.5
2022-10-16T18:27:42.915Z,16.6
2022-10-16T18:28:43.011Z,16.6
2022-10-16T18:29:43.003Z,16.6
2022-10-16T18:30:43.036Z,16.6
2022-10-16T18:31:43.118Z,16.6
2022-10-16T18:32:43.150Z,16.6
2022-10-16T18:33:43.262Z,16.6
2022-10-16T18:34:43.373Z,16.6
2022-10-16T18:35:43.454Z,16.6
2022-10-16T18:36:43.459Z,16.6
2022-10-16T18:37:43.527Z,16.6
2022-10-16T18:38:43.682Z,16.6
2022-10-16T18:39:43.817Z,16.7
2022-10-16T18:40:43.850Z,16.7
2022-10-16T18:41:43.958Z,16.7
2022-10-16T18:42:44.393Z,16.7
2022-10-16T18:43:44.145Z,16.6
2022-10-16T18:44:44.592Z,16.6
2022-10-16T18:45:44.116Z,16.6
2022-10-16T18:46:44.123Z,16.6
2022-10-16T18:47:44.226Z,16.6
2022-10-16T18:48:44.366Z,16.6
2022-10-16T18:49:44.459Z,16.6
2022-10-16T18:50:44.392Z,16.5
2022-10-16T18:51:44.391Z,16.5
2022-10-16T18:52:44.396Z,16.5
2022-10-16T18:53:44.511Z,16.5
2022-10-16T18:54:44.487Z,16.5
2022-10-16T18:55:44.551Z,16.5
2022-10-16T18:56:44.575Z,16.4
2022-10-16T18:57:44.639Z,16.5
2022-10-16T18:58:44.683Z,16.5
2022-10-16T18:59:44.779Z,16.4
2022-10-16T19:02:31.842Z,16.5
2022-10-16T19:02:44.970Z,16.5
2022-10-16T19:03:44.963Z,16.6
2022-10-16T19:04:45.090Z,16.5
2022-10-16T19:05:45.060Z,16.5
2022-10-16T19:06:45.177Z,16.5
2022-10-16T19:07:45.242Z,16.5
2022-10-16T19:08:45.369Z,16.5
2022-10-16T19:09:45.410Z,16.6
2022-10-16T19:10:45.437Z,16.5
2022-10-16T19:11:45.605Z,16.5
2022-10-16T19:12:45.574Z,16.5
2022-10-16T19:13:45.693Z,16.5
2022-10-16T19:14:45.731Z,16.5
2022-10-16T19:15:49.756Z,16.5
2022-10-16T19:16:45.838Z,16.5
2022-10-16T19:17:45.916Z,16.5
2022-10-16T19:18:46.000Z,16.5
2022-10-16T19:19:45.999Z,16.5
2022-10-16T19:20:46.095Z,16.4
2022-10-16T19:21:46.129Z,16.4
2022-10-16T19:22:46.152Z,16.4
2022-10-16T19:23:46.269Z,16.4
2022-10-16T19:24:46.280Z,16.4
2022-10-16T19:25:46.443Z,16.4
2022-10-16T19:26:46.428Z,16.4
2022-10-16T19:27:46.477Z,16.4
2022-10-16T19:28:46.548Z,16.5
2022-10-16T19:29:46.838Z,16.5
2022-10-16T19:30:46.635Z,16.5
2022-10-16T19:31:46.754Z,16.4
2022-10-16T19:32:46.722Z,16.5
2022-10-16T19:33:46.794Z,16.4
2022-10-16T19:34:46.852Z,16.4
2022-10-16T19:35:46.890Z,16.4
2022-10-16T19:36:46.980Z,16.4
2022-10-16T19:37:47.020Z,16.4
2022-10-16T19:38:47.112Z,16.4
2022-10-16T19:39:47.188Z,16.4
2022-10-16T19:40:47.229Z,16.4
2022-10-16T19:41:47.389Z,16.4
2022-10-16T19:42:47.393Z,16.4
2022-10-16T19:43:47.508Z,16.4
2022-10-16T19:44:47.460Z,16.4
2022-10-16T19:45:47.506Z,16.4
2022-10-16T19:46:47.587Z,16.3
2022-10-16T19:47:47.687Z,16.3
2022-10-16T19:48:47.669Z,16.3
2022-10-16T19:49:47.788Z,16.3
2022-10-16T19:50:47.859Z,16.3
2022-10-16T19:51:48.023Z,16.4
2022-10-16T19:52:47.885Z,16.4
2022-10-16T19:53:48.014Z,16.4
2022-10-16T19:54:48.044Z,16.3
2022-10-16T19:55:48.087Z,16.3
2022-10-16T19:56:48.168Z,16.3
2022-10-16T19:57:48.221Z,16.3
2022-10-16T19:58:48.338Z,16.2
2022-10-16T19:59:48.335Z,16.2
2022-10-16T20:00:48.412Z,16.2
2022-10-16T20:01:48.514Z,16.2
2022-10-16T20:02:48.499Z,16.3
2022-10-16T20:03:48.615Z,16.2
2022-10-16T20:04:48.623Z,16.2
2022-10-16T20:05:48.674Z,16.2
2022-10-16T20:06:48.835Z,16.2
2022-10-16T20:07:49.991Z,16.1
2022-10-16T20:08:49.036Z,16.2
2022-10-16T20:09:48.903Z,16.1
2022-10-16T20:10:49.002Z,16
2022-10-16T20:11:49.065Z,16.1
2022-10-16T20:12:54.087Z,16.1
2022-10-16T20:13:49.193Z,16.1
2022-10-16T20:14:49.248Z,16.1
2022-10-16T20:15:49.323Z,16.1
2022-10-16T20:16:49.313Z,16.1
2022-10-16T20:17:49.433Z,16.2
2022-10-16T20:18:49.438Z,16.2
2022-10-16T20:19:49.489Z,16.2
2022-10-16T20:20:49.535Z,16.2
2022-10-16T20:21:49.555Z,16.2
2022-10-16T20:22:49.630Z,16.2
2022-10-16T20:23:49.681Z,16.2
2022-10-16T20:24:49.718Z,16.2
2022-10-16T20:25:49.811Z,16.1
2022-10-16T20:26:49.840Z,16.1
2022-10-16T20:27:49.893Z,16.1
2022-10-16T20:28:50.052Z,16.1
2022-10-16T20:29:49.987Z,16.1
2022-10-16T20:30:50.070Z,16.1
2022-10-16T20:31:50.118Z,16.1
2022-10-16T20:32:50.126Z,16
2022-10-16T20:33:50.231Z,16
2022-10-16T20:34:50.248Z,16
2022-10-16T20:35:50.331Z,16.1
2022-10-16T20:36:50.368Z,16
2022-10-16T20:37:50.401Z,16
2022-10-16T20:38:50.480Z,16
2022-10-16T20:39:50.533Z,16.1
2022-10-16T20:40:50.622Z,16.1
2022-10-16T20:41:50.660Z,16.1
2022-10-16T20:42:50.690Z,16.1
2022-10-16T20:43:50.783Z,16
2022-10-16T20:44:51.317Z,16
2022-10-16T20:45:55.867Z,16
2022-10-16T20:46:50.916Z,16
2022-10-16T20:47:51.002Z,16
2022-10-16T20:48:51.072Z,16
2022-10-16T20:49:51.130Z,16
2022-10-16T20:50:51.236Z,16
2022-10-16T20:51:51.398Z,15.9
2022-10-16T20:52:51.403Z,15.9
2022-10-16T20:53:51.455Z,15.9
2022-10-16T20:54:51.495Z,15.9
2022-10-16T20:55:51.580Z,15.9
2022-10-16T20:56:51.596Z,15.9
2022-10-16T20:57:51.855Z,15.9
2022-10-16T20:58:51.715Z,15.9
2022-10-16T20:59:51.744Z,15.9
2022-10-16T21:00:51.802Z,15.9
2022-10-16T21:01:51.942Z,16
2022-10-16T21:02:51.931Z,16
2022-10-16T21:03:51.971Z,16
2022-10-16T21:04:52.024Z,16
2022-10-16T21:05:53.498Z,15.9
2022-10-16T21:06:52.149Z,16
2022-10-16T21:07:52.230Z,15.9
2022-10-16T21:08:52.250Z,16
2022-10-16T21:09:52.313Z,16
2022-10-16T21:10:57.357Z,15.9
2022-10-16T21:11:52.423Z,15.9
2022-10-16T21:12:52.464Z,15.9
2022-10-16T21:13:52.563Z,15.9
2022-10-16T21:15:13.210Z,15.9
2022-10-16T21:15:52.610Z,15.9
2022-10-16T21:16:52.905Z,15.9
2022-10-16T21:17:52.755Z,16
2022-10-16T21:18:52.816Z,16
2022-10-16T21:19:52.841Z,16
2022-10-16T21:20:52.935Z,15.9
2022-10-16T21:21:53.016Z,15.9
2022-10-16T21:22:53.042Z,15.9
2022-10-16T21:23:53.151Z,15.9
2022-10-16T21:24:53.186Z,15.9
2022-10-16T21:25:53.230Z,15.9
2022-10-16T21:26:53.321Z,15.9
2022-10-16T21:27:53.389Z,15.8
2022-10-16T21:28:53.464Z,15.8
2022-10-16T21:29:53.469Z,15.9
2022-10-16T21:30:53.539Z,15.8
2022-10-16T21:31:53.631Z,15.9
2022-10-16T21:32:53.653Z,15.9
2022-10-16T21:33:53.727Z,15.9
2022-10-16T21:34:53.735Z,15.9
2022-10-16T21:35:53.799Z,15.9
2022-10-16T21:36:53.866Z,16
2022-10-16T21:37:53.923Z,16
2022-10-16T21:38:54.009Z,16
2022-10-16T21:39:54.137Z,15.9
2022-10-16T21:40:54.084Z,16
2022-10-16T21:41:54.153Z,16
2022-10-16T21:42:54.207Z,16
2022-10-16T21:43:59.290Z,16
2022-10-16T21:44:54.283Z,16
2022-10-16T21:45:59.347Z,15.9
2022-10-16T21:46:54.409Z,15.9
2022-10-16T21:48:54.525Z,15.9
2022-10-16T21:49:54.601Z,15.9
2022-10-16T21:50:54.641Z,15.8
2022-10-16T21:51:54.722Z,15.9
2022-10-16T21:52:54.757Z,15.9
2022-10-16T21:53:54.804Z,15.9
2022-10-16T21:54:54.858Z,15.9
2022-10-16T21:55:54.945Z,15.9
2022-10-16T21:56:55.036Z,15.9
2022-10-16T21:57:55.012Z,15.9
2022-10-16T21:58:55.094Z,16
2022-10-16T21:59:55.184Z,16
2022-10-16T22:00:55.284Z,16
2022-10-16T22:01:55.288Z,15.9
2022-10-16T22:02:55.366Z,15.9
2022-10-16T22:03:55.420Z,15.9
2022-10-16T22:04:55.491Z,15.9
2022-10-16T22:05:55.533Z,15.9
2022-10-16T22:06:55.588Z,15.9
2022-10-16T22:07:55.659Z,15.9
2022-10-16T22:08:55.695Z,15.9
2022-10-16T22:09:55.797Z,15.9
2022-10-16T22:10:56.005Z,15.8
2022-10-16T22:11:55.886Z,15.8
2022-10-16T22:12:55.965Z,15.9
2022-10-16T22:13:56.619Z,15.9
2022-10-16T22:14:56.094Z,15.8
2022-10-16T22:15:56.119Z,15.8
2022-10-16T22:16:56.159Z,15.8
2022-10-16T22:17:56.244Z,15.8
2022-10-16T22:18:56.289Z,15.8
2022-10-16T22:19:56.399Z,15.9
2022-10-16T22:20:56.400Z,15.8
2022-10-16T22:21:56.520Z,15.8
2022-10-16T22:22:56.499Z,15.8
2022-10-16T22:23:56.574Z,15.7
2022-10-16T22:24:56.635Z,15.7
2022-10-16T22:25:56.672Z,15.8
2022-10-16T22:26:56.735Z,15.8
2022-10-16T22:27:56.795Z,15.9
2022-10-16T22:28:56.852Z,15.8
2022-10-16T22:29:56.912Z,15.8
2022-10-16T22:30:56.947Z,15.8
2022-10-16T22:31:57.012Z,15.8
2022-10-16T22:32:57.067Z,15.8
2022-10-16T22:33:57.128Z,15.8
2022-10-16T22:34:57.181Z,15.9
2022-10-16T22:35:57.219Z,15.8
2022-10-16T22:36:57.308Z,15.8
2022-10-16T22:37:57.339Z,15.7
2022-10-16T22:38:57.409Z,15.8
2022-10-16T22:39:58.926Z,15.8
2022-10-16T22:40:57.496Z,15.8
2022-10-16T22:41:57.566Z,15.8
2022-10-16T22:42:57.606Z,15.9
2022-10-16T22:43:57.694Z,15.9
2022-10-16T22:44:57.759Z,15.9
2022-10-16T22:45:57.817Z,15.8
2022-10-16T22:46:57.868Z,15.8
2022-10-16T22:47:57.931Z,15.9
2022-10-16T22:48:58.000Z,15.9
2022-10-16T22:49:58.066Z,15.9
2022-10-16T22:50:58.095Z,15.9
2022-10-16T22:51:58.181Z,15.9
2022-10-16T22:52:58.208Z,15.9
2022-10-16T22:53:58.276Z,15.8
2022-10-16T22:54:58.346Z,15.9
2022-10-16T22:55:58.397Z,15.9
2022-10-16T22:56:58.453Z,16
2022-10-16T22:57:58.483Z,16
2022-10-16T22:58:58.518Z,16
2022-10-16T22:59:58.629Z,16
2022-10-16T23:00:58.707Z,16
2022-10-16T23:01:58.734Z,16
2022-10-16T23:02:58.762Z,15.9
2022-10-16T23:03:58.787Z,15.9
2022-10-16T23:04:58.872Z,15.9
2022-10-16T23:05:58.922Z,15.8
2022-10-16T23:06:58.984Z,15.8
2022-10-16T23:07:59.029Z,15.9
2022-10-16T23:08:59.067Z,15.9
2022-10-16T23:09:59.204Z,15.8
2022-10-16T23:10:59.201Z,15.9
2022-10-16T23:11:59.280Z,15.9
2022-10-16T23:12:59.331Z,15.9
2022-10-16T23:13:59.376Z,15.9
2022-10-16T23:15:08.985Z,15.9
2022-10-16T23:15:59.488Z,15.9
2022-10-16T23:18:09.421Z,15.8
2022-10-16T23:18:09.423Z,15.9
2022-10-16T23:18:59.774Z,15.8
2022-10-16T23:20:01.065Z,15.8
2022-10-16T23:21:06.069Z,15.9
2022-10-16T23:22:00.207Z,15.8
2022-10-16T23:22:59.870Z,15.8
2022-10-16T23:24:00.927Z,15.8
2022-10-16T23:24:59.982Z,15.8
2022-10-16T23:26:00.047Z,15.8
2022-10-16T23:27:02.840Z,15.8
2022-10-16T23:28:01.157Z,15.9
2022-10-16T23:29:00.489Z,15.9
2022-10-16T23:30:01.259Z,15.9
2022-10-16T23:31:00.352Z,15.9
2022-10-16T23:32:00.388Z,15.9
2022-10-16T23:33:02.172Z,16
2022-10-16T23:34:02.852Z,16
2022-10-16T23:35:00.548Z,16
2022-10-16T23:36:03.286Z,15.9
2022-10-16T23:37:00.665Z,16
2022-10-16T23:38:00.729Z,16
2022-10-16T23:39:01.839Z,16
2022-10-16T23:40:00.867Z,16
2022-10-16T23:41:00.897Z,16
2022-10-16T23:42:02.464Z,16
2022-10-16T23:43:00.939Z,16
2022-10-16T23:44:01.066Z,16
2022-10-16T23:45:02.588Z,15.9
2022-10-16T23:46:01.153Z,15.9
2022-10-16T23:47:01.302Z,15.9
2022-10-16T23:48:04.246Z,15.9
2022-10-16T23:49:01.436Z,16
2022-10-16T23:50:01.450Z,16
2022-10-16T23:51:02.297Z,16
2022-10-16T23:52:02.471Z,16
2022-10-16T23:53:03.262Z,16
2022-10-16T23:54:03.537Z,16
2022-10-16T23:55:01.757Z,16.1
2022-10-16T23:56:01.925Z,16.1
2022-10-16T23:57:04.419Z,16.1
2022-10-16T23:58:01.901Z,16
2022-10-16T23:59:01.985Z,16
